createdAt,value
2024-03-25T00:00:04.263Z,7.13
2024-03-25T00:01:04.267Z,7.15
2024-03-25T00:02:04.284Z,7.13
2024-03-25T00:03:04.235Z,7.13
2024-03-25T00:04:04.235Z,7.12
2024-03-25T00:05:04.214Z,7.13
2024-03-25T00:06:04.254Z,7.13
2024-03-25T00:07:04.203Z,7.13
2024-03-25T00:08:04.184Z,7.13
2024-03-25T00:09:04.168Z,7.12
2024-03-25T00:10:04.157Z,7.09
2024-03-25T00:11:04.147Z,7.08
2024-03-25T00:12:04.134Z,7.08
2024-03-25T00:13:04.156Z,7.08
2024-03-25T00:14:04.124Z,7.07
2024-03-25T00:15:04.107Z,7.08
2024-03-25T00:16:04.085Z,7.08
2024-03-25T00:17:04.132Z,7.07
2024-03-25T00:18:04.054Z,7.08
2024-03-25T00:19:04.133Z,7.09
2024-03-25T00:20:04.073Z,7.08
2024-03-25T00:21:04.032Z,7.09
2024-03-25T00:22:04.025Z,7.09
2024-03-25T00:23:04.032Z,7.09
2024-03-25T00:24:04.004Z,7.12
2024-03-25T00:25:04.008Z,7.12
2024-03-25T00:26:03.990Z,7.12
2024-03-25T00:27:03.981Z,7.12
2024-03-25T00:28:03.956Z,7.09
2024-03-25T00:29:03.978Z,7.08
2024-03-25T00:30:03.936Z,7.09
2024-03-25T00:31:03.939Z,7.09
2024-03-25T00:32:03.923Z,7.09
2024-03-25T00:33:03.915Z,7.09
2024-03-25T00:34:03.925Z,7.12
2024-03-25T00:35:03.894Z,7.09
2024-03-25T00:36:03.873Z,7.12
2024-03-25T00:37:03.908Z,7.12
2024-03-25T00:38:03.856Z,7.13
2024-03-25T00:39:03.856Z,7.12
2024-03-25T00:40:03.838Z,7.12
2024-03-25T00:41:03.812Z,7.12
2024-03-25T00:42:03.859Z,7.09
2024-03-25T00:43:03.833Z,7.09
2024-03-25T00:44:03.778Z,7.07
2024-03-25T00:45:03.808Z,7.04
2024-03-25T00:46:03.773Z,7.01
2024-03-25T00:47:03.785Z,7.02
2024-03-25T00:48:03.747Z,7.02
2024-03-25T00:49:03.755Z,7.02
2024-03-25T00:50:03.763Z,7.04
2024-03-25T00:51:03.707Z,7.04
2024-03-25T00:52:03.703Z,7.05
2024-03-25T00:53:03.685Z,7.02
2024-03-25T00:54:03.673Z,7.02
2024-03-25T00:55:03.690Z,7.02
2024-03-25T00:56:03.669Z,7.04
2024-03-25T00:57:03.645Z,7.02
2024-03-25T00:58:03.631Z,7.02
2024-03-25T00:59:03.609Z,7.01
2024-03-25T01:00:03.617Z,7.02
2024-03-25T01:01:03.608Z,7.02
2024-03-25T01:02:03.591Z,6.99
2024-03-25T01:03:03.581Z,6.99
2024-03-25T01:04:03.564Z,6.99
2024-03-25T01:05:03.546Z,7.01
2024-03-25T01:06:03.531Z,7.01
2024-03-25T01:07:03.569Z,7.01
2024-03-25T01:08:03.515Z,7.01
2024-03-25T01:09:03.499Z,6.99
2024-03-25T01:10:03.523Z,6.98
2024-03-25T01:11:03.479Z,6.95
2024-03-25T01:12:03.532Z,6.95
2024-03-25T01:13:03.480Z,6.97
2024-03-25T01:14:03.457Z,6.97
2024-03-25T01:15:03.427Z,6.97
2024-03-25T01:16:03.446Z,6.95
2024-03-25T01:17:03.413Z,6.95
2024-03-25T01:18:03.562Z,6.91
2024-03-25T01:19:03.441Z,6.94
2024-03-25T01:20:03.379Z,6.94
2024-03-25T01:21:03.416Z,6.91
2024-03-25T01:22:03.357Z,6.94
2024-03-25T01:23:03.364Z,6.94
2024-03-25T01:24:03.350Z,6.95
2024-03-25T01:25:03.373Z,6.91
2024-03-25T01:26:03.321Z,6.94
2024-03-25T01:27:03.354Z,6.95
2024-03-25T01:28:03.308Z,6.91
2024-03-25T01:29:03.276Z,6.94
2024-03-25T01:30:03.280Z,6.94
2024-03-25T01:31:03.266Z,6.95
2024-03-25T01:32:03.260Z,6.98
2024-03-25T01:33:03.254Z,6.97
2024-03-25T01:34:03.273Z,6.97
2024-03-25T01:35:03.224Z,6.99
2024-03-25T01:36:03.218Z,6.99
2024-03-25T01:37:03.221Z,6.99
2024-03-25T01:38:03.182Z,7.01
2024-03-25T01:39:03.216Z,7.01
2024-03-25T01:40:03.167Z,6.98
2024-03-25T01:41:03.147Z,6.98
2024-03-25T01:42:03.147Z,6.99
2024-03-25T01:43:03.167Z,7.01
2024-03-25T01:44:03.164Z,7.01
2024-03-25T01:45:03.133Z,7.02
2024-03-25T01:46:03.101Z,7.02
2024-03-25T01:47:03.097Z,7.01
2024-03-25T01:48:03.090Z,7.02
2024-03-25T01:49:03.098Z,7.02
2024-03-25T01:50:03.070Z,6.99
2024-03-25T01:51:03.042Z,7.01
2024-03-25T01:52:03.026Z,7.01
2024-03-25T01:53:03.075Z,7.01
2024-03-25T01:54:02.993Z,7.01
2024-03-25T01:55:03.023Z,7.01
2024-03-25T01:56:02.982Z,7.01
2024-03-25T01:57:02.976Z,7.01
2024-03-25T01:58:03.013Z,7.01
2024-03-25T01:59:02.957Z,7.01
2024-03-25T02:00:02.961Z,7.02
2024-03-25T02:01:02.988Z,7.02
2024-03-25T02:02:02.957Z,7.01
2024-03-25T02:03:02.931Z,7.02
2024-03-25T02:04:02.962Z,7.04
2024-03-25T02:05:02.930Z,7.05
2024-03-25T02:06:03.002Z,7.04
2024-03-25T02:07:02.956Z,7.02
2024-03-25T02:08:02.885Z,7.01
2024-03-25T02:09:02.878Z,6.98
2024-03-25T02:10:02.937Z,6.97
2024-03-25T02:11:02.821Z,6.95
2024-03-25T02:12:02.971Z,6.91
2024-03-25T02:13:02.906Z,6.91
2024-03-25T02:14:02.838Z,6.87
2024-03-25T02:15:02.786Z,6.83
2024-03-25T02:16:02.838Z,6.81
2024-03-25T02:17:02.778Z,6.81
2024-03-25T02:18:02.788Z,6.80
2024-03-25T02:19:02.761Z,6.79
2024-03-25T02:20:02.786Z,6.76
2024-03-25T02:21:02.705Z,6.73
2024-03-25T02:22:02.758Z,6.73
2024-03-25T02:23:02.680Z,6.71
2024-03-25T02:24:02.678Z,6.71
2024-03-25T02:25:02.699Z,6.68
2024-03-25T02:26:02.650Z,6.63
2024-03-25T02:27:02.653Z,6.63
2024-03-25T02:28:02.649Z,6.63
2024-03-25T02:29:02.629Z,6.59
2024-03-25T02:30:02.625Z,6.58
2024-03-25T02:31:02.665Z,6.56
2024-03-25T02:32:02.600Z,6.53
2024-03-25T02:33:02.561Z,6.53
2024-03-25T02:34:02.556Z,6.51
2024-03-25T02:35:02.556Z,6.51
2024-03-25T02:36:02.548Z,6.51
2024-03-25T02:37:02.530Z,6.50
2024-03-25T02:38:02.507Z,6.51
2024-03-25T02:39:02.488Z,6.53
2024-03-25T02:40:02.511Z,6.54
2024-03-25T02:41:02.469Z,6.56
2024-03-25T02:42:02.473Z,6.56
2024-03-25T02:43:02.479Z,6.59
2024-03-25T02:44:02.444Z,6.61
2024-03-25T02:45:02.425Z,6.59
2024-03-25T02:46:02.424Z,6.62
2024-03-25T02:47:02.413Z,6.61
2024-03-25T02:48:02.421Z,6.61
2024-03-25T02:49:02.398Z,6.61
2024-03-25T02:50:02.435Z,6.62
2024-03-25T02:51:02.379Z,6.63
2024-03-25T02:52:02.356Z,6.63
2024-03-25T02:53:02.338Z,6.62
2024-03-25T02:54:02.345Z,6.59
2024-03-25T02:55:02.367Z,6.61
2024-03-25T02:56:02.303Z,6.59
2024-03-25T02:57:02.306Z,6.61
2024-03-25T02:58:02.294Z,6.62
2024-03-25T02:59:02.292Z,6.65
2024-03-25T03:00:02.324Z,6.65
2024-03-25T03:01:02.269Z,6.65
2024-03-25T03:02:02.251Z,6.65
2024-03-25T03:03:02.244Z,6.66
2024-03-25T03:04:02.233Z,6.66
2024-03-25T03:05:02.239Z,6.66
2024-03-25T03:06:02.224Z,6.66
2024-03-25T03:07:02.197Z,6.65
2024-03-25T03:08:02.190Z,6.66
2024-03-25T03:09:02.160Z,6.68
2024-03-25T03:10:02.179Z,6.68
2024-03-25T03:11:02.146Z,6.69
2024-03-25T03:12:02.157Z,6.69
2024-03-25T03:13:02.136Z,6.69
2024-03-25T03:14:02.133Z,6.71
2024-03-25T03:15:02.106Z,6.69
2024-03-25T03:16:02.095Z,6.68
2024-03-25T03:17:02.115Z,6.69
2024-03-25T03:18:02.062Z,6.69
2024-03-25T03:19:02.076Z,6.71
2024-03-25T03:20:02.139Z,6.71
2024-03-25T03:21:02.051Z,6.71
2024-03-25T03:22:02.032Z,6.71
2024-03-25T03:23:02.066Z,6.69
2024-03-25T03:24:02.007Z,6.69
2024-03-25T03:25:02.009Z,6.68
2024-03-25T03:26:02.017Z,6.69
2024-03-25T03:27:01.967Z,6.68
2024-03-25T03:28:01.957Z,6.66
2024-03-25T03:29:01.958Z,6.66
2024-03-25T03:30:02.002Z,6.68
2024-03-25T03:31:01.932Z,6.66
2024-03-25T03:32:01.903Z,6.69
2024-03-25T03:33:01.914Z,6.69
2024-03-25T03:34:01.893Z,6.69
2024-03-25T03:35:01.925Z,6.69
2024-03-25T03:36:01.919Z,6.69
2024-03-25T03:37:01.860Z,6.71
2024-03-25T03:38:01.869Z,6.71
2024-03-25T03:39:01.831Z,6.71
2024-03-25T03:40:01.830Z,6.69
2024-03-25T03:41:01.830Z,6.69
2024-03-25T03:42:01.830Z,6.69
2024-03-25T03:43:01.799Z,6.68
2024-03-25T03:44:01.799Z,6.68
2024-03-25T03:45:01.773Z,6.66
2024-03-25T03:46:01.746Z,6.65
2024-03-25T03:47:01.769Z,6.66
2024-03-25T03:48:01.720Z,6.65
2024-03-25T03:49:01.756Z,6.65
2024-03-25T03:50:01.723Z,6.63
2024-03-25T03:51:01.700Z,6.65
2024-03-25T03:52:01.697Z,6.63
2024-03-25T03:53:01.709Z,6.63
2024-03-25T03:54:01.673Z,6.65
2024-03-25T03:55:01.671Z,6.62
2024-03-25T03:56:01.681Z,6.62
2024-03-25T03:57:01.627Z,6.62
2024-03-25T03:58:01.616Z,6.63
2024-03-25T03:59:01.671Z,6.62
2024-03-25T04:00:01.599Z,6.63
2024-03-25T04:01:01.615Z,6.62
2024-03-25T04:02:01.604Z,6.63
2024-03-25T04:03:01.564Z,6.61
2024-03-25T04:04:01.563Z,6.61
2024-03-25T04:05:01.589Z,6.62
2024-03-25T04:06:01.527Z,6.63
2024-03-25T04:07:01.540Z,6.63
2024-03-25T04:08:01.520Z,6.65
2024-03-25T04:09:01.510Z,6.65
2024-03-25T04:10:01.511Z,6.65
2024-03-25T04:11:01.500Z,6.68
2024-03-25T04:12:01.480Z,6.68
2024-03-25T04:13:01.486Z,6.66
2024-03-25T04:14:01.471Z,6.68
2024-03-25T04:15:01.425Z,6.66
2024-03-25T04:16:01.416Z,6.65
2024-03-25T04:17:01.463Z,6.62
2024-03-25T04:18:01.397Z,6.58
2024-03-25T04:19:01.409Z,6.54
2024-03-25T04:20:01.401Z,6.51
2024-03-25T04:21:01.370Z,6.50
2024-03-25T04:22:01.377Z,6.46
2024-03-25T04:23:01.407Z,6.43
2024-03-25T04:24:01.331Z,6.40
2024-03-25T04:25:01.336Z,6.36
2024-03-25T04:26:01.339Z,6.33
2024-03-25T04:27:01.305Z,6.29
2024-03-25T04:28:01.284Z,6.21
2024-03-25T04:29:01.328Z,6.16
2024-03-25T04:30:01.314Z,6.13
2024-03-25T04:31:01.274Z,6.09
2024-03-25T04:32:01.266Z,6.06
2024-03-25T04:33:01.251Z,5.98
2024-03-25T04:34:01.218Z,5.95
2024-03-25T04:35:01.249Z,5.92
2024-03-25T04:36:01.215Z,5.88
2024-03-25T04:37:01.200Z,5.85
2024-03-25T04:38:01.182Z,5.83
2024-03-25T04:39:01.165Z,5.77
2024-03-25T04:40:01.150Z,5.75
2024-03-25T04:41:01.151Z,5.73
2024-03-25T04:42:01.165Z,5.71
2024-03-25T04:43:01.139Z,5.68
2024-03-25T04:44:01.138Z,5.66
2024-03-25T04:45:01.095Z,5.63
2024-03-25T04:46:01.124Z,5.60
2024-03-25T04:47:01.082Z,5.55
2024-03-25T04:48:01.058Z,5.50
2024-03-25T04:49:01.061Z,5.48
2024-03-25T04:50:01.049Z,5.45
2024-03-25T04:51:01.024Z,5.41
2024-03-25T04:52:01.027Z,5.41
2024-03-25T04:53:01.016Z,5.43
2024-03-25T04:54:01.013Z,5.38
2024-03-25T04:55:00.991Z,5.40
2024-03-25T04:56:01.029Z,5.40
2024-03-25T04:57:00.960Z,5.41
2024-03-25T04:58:00.953Z,5.41
2024-03-25T04:59:00.969Z,5.43
2024-03-25T05:00:00.930Z,5.45
2024-03-25T05:01:00.955Z,5.48
2024-03-25T05:02:00.923Z,5.46
2024-03-25T05:03:00.895Z,5.45
2024-03-25T05:04:02.986Z,5.43
2024-03-25T05:05:00.889Z,5.43
2024-03-25T05:06:00.870Z,5.46
2024-03-25T05:07:00.865Z,5.48
2024-03-25T05:08:00.858Z,5.52
2024-03-25T05:09:00.823Z,5.55
2024-03-25T05:10:01.668Z,5.55
2024-03-25T05:11:00.835Z,5.57
2024-03-25T05:12:00.809Z,5.59
2024-03-25T05:13:00.801Z,5.60
2024-03-25T05:14:00.799Z,5.64
2024-03-25T05:15:00.799Z,5.66
2024-03-25T05:16:00.761Z,5.67
2024-03-25T05:17:00.757Z,5.68
2024-03-25T05:18:00.718Z,5.68
2024-03-25T05:19:00.727Z,5.71
2024-03-25T05:20:00.716Z,5.74
2024-03-25T05:21:00.689Z,5.75
2024-03-25T05:22:00.686Z,5.78
2024-03-25T05:23:00.698Z,5.82
2024-03-25T05:24:00.654Z,5.82
2024-03-25T05:25:00.669Z,5.83
2024-03-25T05:26:00.661Z,5.83
2024-03-25T05:27:00.618Z,5.83
2024-03-25T05:28:00.640Z,5.85
2024-03-25T05:29:00.600Z,5.85
2024-03-25T05:30:01.478Z,5.89
2024-03-25T05:31:00.596Z,5.88
2024-03-25T05:32:00.614Z,5.88
2024-03-25T05:33:00.587Z,5.89
2024-03-25T05:34:00.552Z,5.89
2024-03-25T05:35:00.541Z,5.89
2024-03-25T05:36:00.537Z,5.89
2024-03-25T05:37:00.532Z,5.89
2024-03-25T05:38:00.527Z,5.91
2024-03-25T05:39:00.491Z,5.91
2024-03-25T05:40:00.481Z,5.88
2024-03-25T05:41:00.530Z,5.88
2024-03-25T05:42:00.490Z,5.88
2024-03-25T05:43:00.468Z,5.86
2024-03-25T05:44:00.472Z,5.86
2024-03-25T05:45:00.427Z,5.85
2024-03-25T05:46:00.415Z,5.82
2024-03-25T05:47:00.431Z,5.81
2024-03-25T05:48:00.392Z,5.82
2024-03-25T05:49:00.402Z,5.81
2024-03-25T05:50:00.403Z,5.78
2024-03-25T05:51:00.349Z,5.77
2024-03-25T05:52:00.373Z,5.78
2024-03-25T05:53:00.398Z,5.78
2024-03-25T05:54:00.328Z,5.81
2024-03-25T05:55:00.350Z,5.82
2024-03-25T05:56:00.315Z,5.83
2024-03-25T05:57:00.291Z,5.86
2024-03-25T05:58:00.282Z,5.89
2024-03-25T05:59:00.282Z,5.92
2024-03-25T06:00:00.406Z,5.95
2024-03-25T06:01:00.382Z,5.98
2024-03-25T06:02:00.239Z,6.01
2024-03-25T06:03:00.220Z,6.04
2024-03-25T06:04:00.250Z,6.07
2024-03-25T06:05:00.207Z,6.07
2024-03-25T06:06:00.204Z,6.09
2024-03-25T06:07:00.202Z,6.11
2024-03-25T06:08:00.172Z,6.11
2024-03-25T06:09:00.167Z,6.11
2024-03-25T06:10:00.208Z,6.14
2024-03-25T06:11:00.138Z,6.14
2024-03-25T06:12:00.151Z,6.18
2024-03-25T06:13:00.140Z,6.19
2024-03-25T06:14:00.109Z,6.22
2024-03-25T06:15:00.126Z,6.22
2024-03-25T06:16:00.091Z,6.25
2024-03-25T06:17:00.074Z,6.25
2024-03-25T06:18:00.085Z,6.25
2024-03-25T06:19:00.078Z,6.28
2024-03-25T06:20:00.057Z,6.29
2024-03-25T06:21:00.024Z,6.29
2024-03-25T06:22:00.048Z,6.30
2024-03-25T06:23:00.055Z,6.32
2024-03-25T06:24:00.015Z,6.33
2024-03-25T06:24:59.994Z,6.35
2024-03-25T06:25:59.973Z,6.36
2024-03-25T06:26:59.957Z,6.40
2024-03-25T06:27:59.947Z,6.38
2024-03-25T06:28:59.955Z,6.40
2024-03-25T06:29:59.929Z,6.40
2024-03-25T06:30:59.931Z,6.43
2024-03-25T06:31:59.912Z,6.44
2024-03-25T06:32:59.914Z,6.46
2024-03-25T06:33:59.905Z,6.44
2024-03-25T06:34:59.892Z,6.47
2024-03-25T06:35:59.958Z,6.47
2024-03-25T06:36:59.877Z,6.44
2024-03-25T06:37:59.838Z,6.43
2024-03-25T06:38:59.846Z,6.41
2024-03-25T06:39:59.820Z,6.38
2024-03-25T06:40:59.804Z,6.32
2024-03-25T06:41:59.798Z,6.33
2024-03-25T06:42:59.795Z,6.32
2024-03-25T06:43:59.770Z,6.35
2024-03-25T06:44:59.764Z,6.36
2024-03-25T06:45:59.860Z,6.41
2024-03-25T06:46:59.733Z,6.41
2024-03-25T06:47:59.733Z,6.46
2024-03-25T06:48:59.738Z,6.47
2024-03-25T06:49:59.721Z,6.48
2024-03-25T06:50:59.690Z,6.50
2024-03-25T06:51:59.682Z,6.50
2024-03-25T06:52:59.683Z,6.50
2024-03-25T06:53:59.678Z,6.53
2024-03-25T06:54:59.668Z,6.56
2024-03-25T06:55:59.668Z,6.61
2024-03-25T06:56:59.627Z,6.63
2024-03-25T06:57:59.629Z,6.68
2024-03-25T06:58:59.603Z,6.69
2024-03-25T07:00:01.194Z,6.72
2024-03-25T07:00:59.617Z,6.73
2024-03-25T07:01:59.574Z,6.72
2024-03-25T07:02:59.556Z,6.73
2024-03-25T07:03:59.571Z,6.77
2024-03-25T07:04:59.539Z,6.79
2024-03-25T07:05:59.536Z,6.81
2024-03-25T07:06:59.571Z,6.84
2024-03-25T07:07:59.507Z,6.89
2024-03-25T07:08:59.491Z,6.91
2024-03-25T07:09:59.484Z,6.94
2024-03-25T07:10:59.480Z,6.97
2024-03-25T07:11:59.483Z,7.01
2024-03-25T07:12:59.471Z,7.05
2024-03-25T07:13:59.437Z,7.08
2024-03-25T07:14:59.425Z,7.13
2024-03-25T07:15:59.415Z,7.16
2024-03-25T07:16:59.415Z,7.17
2024-03-25T07:17:59.389Z,7.16
2024-03-25T07:18:59.396Z,7.12
2024-03-25T07:19:59.373Z,7.15
2024-03-25T07:20:59.361Z,7.16
2024-03-25T07:21:59.356Z,7.19
2024-03-25T07:22:59.336Z,7.22
2024-03-25T07:23:59.343Z,7.24
2024-03-25T07:24:59.350Z,7.26
2024-03-25T07:25:59.311Z,7.27
2024-03-25T07:26:59.296Z,7.27
2024-03-25T07:27:59.293Z,7.31
2024-03-25T07:28:59.293Z,7.32
2024-03-25T07:29:59.268Z,7.32
2024-03-25T07:30:59.265Z,7.31
2024-03-25T07:31:59.248Z,7.29
2024-03-25T07:32:59.223Z,7.32
2024-03-25T07:33:59.219Z,7.40
2024-03-25T07:34:59.209Z,7.42
2024-03-25T07:35:59.214Z,7.37
2024-03-25T07:36:59.191Z,7.37
2024-03-25T07:37:59.176Z,7.41
2024-03-25T07:38:59.172Z,7.45
2024-03-25T07:39:59.441Z,7.52
2024-03-25T07:40:59.156Z,7.56
2024-03-25T07:41:59.184Z,7.63
2024-03-25T07:42:59.156Z,7.69
2024-03-25T07:43:59.132Z,7.71
2024-03-25T07:44:59.104Z,7.71
2024-03-25T07:45:59.147Z,7.74
2024-03-25T07:46:59.075Z,7.79
2024-03-25T07:47:59.107Z,7.81
2024-03-25T07:48:59.082Z,7.84
2024-03-25T07:49:59.063Z,7.82
2024-03-25T07:50:59.037Z,7.84
2024-03-25T07:51:59.030Z,7.85
2024-03-25T07:52:59.032Z,7.84
2024-03-25T07:53:58.996Z,7.84
2024-03-25T07:54:59.010Z,7.87
2024-03-25T07:55:59.007Z,7.92
2024-03-25T07:56:58.981Z,7.92
2024-03-25T07:57:58.990Z,7.93
2024-03-25T07:58:58.948Z,7.93
2024-03-25T07:59:58.947Z,7.93
2024-03-25T08:00:58.924Z,7.90
2024-03-25T08:01:58.932Z,7.89
2024-03-25T08:02:58.908Z,7.90
2024-03-25T08:03:58.957Z,7.89
2024-03-25T08:04:58.876Z,7.89
2024-03-25T08:05:58.878Z,7.92
2024-03-25T08:06:58.909Z,7.96
2024-03-25T08:07:58.848Z,7.99
2024-03-25T08:08:58.866Z,8.02
2024-03-25T08:09:58.814Z,8.03
2024-03-25T08:10:58.808Z,8.07
2024-03-25T08:11:58.785Z,8.08
2024-03-25T08:12:58.825Z,8.10
2024-03-25T08:13:58.787Z,8.07
2024-03-25T08:14:58.767Z,8.08
2024-03-25T08:15:58.754Z,8.04
2024-03-25T08:16:58.729Z,8.07
2024-03-25T08:17:58.721Z,8.15
2024-03-25T08:18:58.738Z,8.20
2024-03-25T08:19:58.717Z,8.29
2024-03-25T08:20:59.465Z,8.36
2024-03-25T08:21:58.696Z,8.40
2024-03-25T08:22:58.671Z,8.45
2024-03-25T08:23:58.741Z,8.53
2024-03-25T08:24:58.660Z,8.58
2024-03-25T08:25:58.730Z,8.62
2024-03-25T08:26:58.624Z,8.68
2024-03-25T08:27:58.622Z,8.73
2024-03-25T08:28:58.669Z,8.78
2024-03-25T08:29:58.587Z,8.81
2024-03-25T08:30:58.642Z,8.86
2024-03-25T08:31:58.578Z,8.81
2024-03-25T08:32:58.560Z,8.79
2024-03-25T08:33:58.552Z,8.86
2024-03-25T08:34:58.531Z,8.88
2024-03-25T08:35:58.546Z,8.88
2024-03-25T08:36:58.532Z,8.88
2024-03-25T08:37:58.513Z,8.87
2024-03-25T08:38:58.493Z,8.88
2024-03-25T08:39:58.490Z,8.88
2024-03-25T08:40:58.460Z,8.90
2024-03-25T08:41:58.455Z,8.91
2024-03-25T08:42:58.457Z,8.91
2024-03-25T08:43:58.504Z,8.96
2024-03-25T08:44:58.435Z,8.99
2024-03-25T08:45:58.424Z,9.05
2024-03-25T08:46:58.410Z,9.09
2024-03-25T08:47:58.389Z,9.13
2024-03-25T08:48:58.406Z,9.13
2024-03-25T08:49:58.375Z,9.12
2024-03-25T08:50:58.367Z,9.16
2024-03-25T08:51:58.367Z,9.20
2024-03-25T08:52:58.337Z,9.23
2024-03-25T08:53:58.325Z,9.23
2024-03-25T08:54:58.346Z,9.21
2024-03-25T08:55:58.351Z,9.21
2024-03-25T08:56:58.332Z,9.18
2024-03-25T08:57:58.314Z,9.16
2024-03-25T08:58:58.333Z,9.09
2024-03-25T08:59:58.310Z,9.04
2024-03-25T09:00:58.260Z,9.02
2024-03-25T09:01:58.253Z,8.97
2024-03-25T09:02:58.221Z,8.93
2024-03-25T09:03:58.253Z,8.87
2024-03-25T09:04:58.200Z,8.87
2024-03-25T09:05:58.217Z,8.86
2024-03-25T09:06:58.202Z,8.81
2024-03-25T09:07:58.788Z,8.81
2024-03-25T09:08:58.175Z,8.84
2024-03-25T09:09:58.197Z,8.83
2024-03-25T09:10:58.128Z,8.86
2024-03-25T09:11:58.153Z,8.88
2024-03-25T09:12:58.149Z,8.91
2024-03-25T09:13:58.103Z,8.90
2024-03-25T09:14:58.092Z,8.91
2024-03-25T09:15:58.120Z,8.93
2024-03-25T09:16:58.081Z,8.94
2024-03-25T09:17:58.089Z,8.97
2024-03-25T09:18:58.114Z,9.04
2024-03-25T09:19:58.037Z,9.10
2024-03-25T09:20:58.033Z,9.13
2024-03-25T09:21:58.017Z,9.23
2024-03-25T09:22:58.017Z,9.25
2024-03-25T09:23:58.003Z,9.27
2024-03-25T09:24:58.022Z,9.31
2024-03-25T09:25:57.988Z,9.32
2024-03-25T09:26:57.963Z,9.35
2024-03-25T09:27:58.003Z,9.35
2024-03-25T09:28:57.995Z,9.38
2024-03-25T09:29:57.947Z,9.40
2024-03-25T09:30:57.973Z,9.40
2024-03-25T09:31:57.965Z,9.42
2024-03-25T09:32:57.917Z,9.32
2024-03-25T09:33:57.917Z,9.31
2024-03-25T09:34:58.735Z,9.27
2024-03-25T09:35:57.868Z,9.18
2024-03-25T09:36:57.897Z,9.16
2024-03-25T09:37:57.917Z,9.18
2024-03-25T09:38:57.872Z,9.21
2024-03-25T09:39:57.841Z,9.04
2024-03-25T09:40:57.802Z,9.09
2024-03-25T09:41:57.822Z,9.16
2024-03-25T09:42:57.829Z,9.27
2024-03-25T09:43:57.781Z,9.38
2024-03-25T09:44:57.760Z,9.43
2024-03-25T09:45:57.822Z,9.50
2024-03-25T09:46:57.745Z,9.57
2024-03-25T09:47:57.735Z,9.56
2024-03-25T09:48:57.817Z,9.50
2024-03-25T09:49:57.812Z,9.53
2024-03-25T09:50:57.822Z,9.56
2024-03-25T09:51:57.684Z,9.58
2024-03-25T09:52:57.687Z,9.60
2024-03-25T09:53:57.680Z,9.64
2024-03-25T09:54:57.685Z,9.66
2024-03-25T09:55:57.735Z,9.61
2024-03-25T09:56:57.681Z,9.56
2024-03-25T09:57:57.655Z,9.50
2024-03-25T09:58:57.629Z,9.46
2024-03-25T09:59:57.720Z,9.42
2024-03-25T10:00:57.620Z,9.45
2024-03-25T10:01:57.578Z,9.49
2024-03-25T10:02:57.576Z,9.58
2024-03-25T10:03:57.605Z,9.66
2024-03-25T10:04:57.540Z,9.73
2024-03-25T10:05:57.640Z,9.88
2024-03-25T10:06:57.576Z,10.01
2024-03-25T10:07:57.514Z,10.07
2024-03-25T10:08:57.527Z,10.09
2024-03-25T10:09:57.539Z,10.12
2024-03-25T10:10:57.473Z,10.15
2024-03-25T10:11:57.473Z,10.18
2024-03-25T10:12:57.520Z,10.25
2024-03-25T10:13:57.440Z,10.26
2024-03-25T10:14:57.545Z,10.26
2024-03-25T10:15:57.431Z,10.30
2024-03-25T10:16:57.415Z,10.28
2024-03-25T10:17:57.394Z,10.21
2024-03-25T10:18:57.483Z,10.15
2024-03-25T10:19:57.393Z,10.15
2024-03-25T10:20:57.360Z,10.17
2024-03-25T10:21:57.358Z,10.21
2024-03-25T10:22:57.387Z,10.22
2024-03-25T10:23:57.418Z,10.17
2024-03-25T10:24:57.366Z,10.19
2024-03-25T10:25:57.308Z,10.25
2024-03-25T10:26:57.313Z,10.26
2024-03-25T10:27:57.329Z,10.33
2024-03-25T10:28:57.284Z,10.37
2024-03-25T10:29:58.174Z,10.42
2024-03-25T10:30:57.279Z,10.42
2024-03-25T10:31:57.253Z,10.39
2024-03-25T10:32:57.258Z,10.40
2024-03-25T10:33:57.222Z,10.40
2024-03-25T10:34:58.764Z,10.42
2024-03-25T10:35:57.237Z,10.42
2024-03-25T10:36:57.310Z,10.42
2024-03-25T10:37:57.173Z,10.34
2024-03-25T10:38:57.296Z,10.28
2024-03-25T10:39:57.205Z,10.18
2024-03-25T10:40:57.141Z,10.09
2024-03-25T10:41:57.225Z,10.01
2024-03-25T10:42:57.208Z,9.99
2024-03-25T10:43:57.131Z,9.86
2024-03-25T10:44:57.089Z,9.82
2024-03-25T10:45:57.080Z,9.82
2024-03-25T10:46:57.210Z,9.88
2024-03-25T10:47:57.072Z,9.94
2024-03-25T10:48:57.070Z,10.01
2024-03-25T10:49:57.057Z,10.10
2024-03-25T10:50:57.028Z,10.17
2024-03-25T10:51:57.010Z,10.25
2024-03-25T10:52:57.028Z,10.32
2024-03-25T10:53:57.115Z,10.40
2024-03-25T10:54:57.058Z,10.46
2024-03-25T10:55:57.006Z,10.56
2024-03-25T10:56:57.009Z,10.59
2024-03-25T10:57:57.044Z,10.63
2024-03-25T10:58:56.974Z,10.63
2024-03-25T10:59:57.067Z,10.59
2024-03-25T11:00:56.934Z,10.59
2024-03-25T11:01:56.901Z,10.56
2024-03-25T11:02:57.001Z,10.53
2024-03-25T11:03:56.894Z,10.52
2024-03-25T11:04:56.932Z,10.56
2024-03-25T11:05:56.870Z,10.53
2024-03-25T11:06:56.911Z,10.53
2024-03-25T11:07:56.869Z,10.55
2024-03-25T11:08:56.859Z,10.66
2024-03-25T11:09:56.861Z,10.71
2024-03-25T11:10:56.829Z,10.73
2024-03-25T11:11:56.807Z,10.84
2024-03-25T11:12:56.818Z,10.94
2024-03-25T11:13:56.778Z,11.01
2024-03-25T11:14:56.804Z,10.98
2024-03-25T11:15:56.756Z,11.02
2024-03-25T11:16:56.741Z,11.07
2024-03-25T11:17:56.727Z,11.02
2024-03-25T11:18:56.787Z,10.88
2024-03-25T11:19:56.858Z,10.80
2024-03-25T11:20:56.707Z,10.78
2024-03-25T11:21:56.698Z,10.76
2024-03-25T11:22:56.681Z,10.71
2024-03-25T11:23:56.673Z,10.68
2024-03-25T11:24:56.666Z,10.68
2024-03-25T11:25:56.637Z,10.73
2024-03-25T11:26:56.658Z,10.76
2024-03-25T11:27:56.608Z,10.81
2024-03-25T11:28:56.598Z,10.89
2024-03-25T11:29:56.606Z,10.96
2024-03-25T11:30:56.629Z,11.03
2024-03-25T11:31:56.598Z,11.07
2024-03-25T11:32:56.557Z,11.09
2024-03-25T11:33:56.546Z,11.13
2024-03-25T11:34:56.539Z,11.14
2024-03-25T11:35:56.518Z,11.19
2024-03-25T11:36:56.597Z,11.19
2024-03-25T11:37:56.526Z,11.16
2024-03-25T11:38:56.476Z,11.13
2024-03-25T11:39:56.516Z,11.17
2024-03-25T11:40:56.469Z,11.24
2024-03-25T11:41:56.458Z,11.31
2024-03-25T11:42:56.502Z,11.39
2024-03-25T11:43:56.508Z,11.44
2024-03-25T11:45:00.965Z,11.35
2024-03-25T11:45:56.415Z,11.24
2024-03-25T11:46:56.451Z,11.19
2024-03-25T11:47:56.404Z,11.19
2024-03-25T11:48:56.430Z,11.17
2024-03-25T11:49:56.366Z,11.16
2024-03-25T11:50:56.367Z,11.13
2024-03-25T11:51:56.347Z,11.02
2024-03-25T11:52:56.323Z,11.02
2024-03-25T11:53:56.352Z,11.03
2024-03-25T11:54:56.333Z,10.94
2024-03-25T11:55:56.312Z,10.99
2024-03-25T11:56:56.297Z,11.06
2024-03-25T11:57:56.289Z,11.09
2024-03-25T11:58:56.292Z,11.13
2024-03-25T11:59:56.292Z,11.19
2024-03-25T12:00:56.259Z,11.27
2024-03-25T12:01:56.338Z,11.19
2024-03-25T12:02:56.243Z,11.19
2024-03-25T12:03:56.211Z,11.10
2024-03-25T12:04:56.193Z,11.11
2024-03-25T12:05:56.226Z,11.03
2024-03-25T12:06:56.190Z,10.99
2024-03-25T12:07:56.198Z,11.10
2024-03-25T12:08:56.691Z,11.28
2024-03-25T12:09:56.144Z,11.44
2024-03-25T12:10:56.135Z,11.53
2024-03-25T12:11:56.131Z,11.67
2024-03-25T12:12:56.174Z,11.86
2024-03-25T12:13:56.106Z,12.09
2024-03-25T12:14:56.106Z,12.26
2024-03-25T12:15:56.093Z,12.30
2024-03-25T12:16:56.070Z,12.12
2024-03-25T12:17:56.069Z,12.02
2024-03-25T12:18:56.091Z,11.89
2024-03-25T12:19:56.067Z,11.61
2024-03-25T12:20:56.041Z,11.28
2024-03-25T12:21:56.033Z,11.02
2024-03-25T12:22:56.029Z,10.84
2024-03-25T12:23:55.984Z,10.70
2024-03-25T12:24:56.020Z,10.63
2024-03-25T12:25:55.971Z,10.59
2024-03-25T12:26:56.193Z,10.53
2024-03-25T12:27:55.956Z,10.53
2024-03-25T12:28:55.933Z,10.53
2024-03-25T12:29:55.910Z,10.56
2024-03-25T12:30:55.967Z,10.60
2024-03-25T12:31:55.924Z,10.59
2024-03-25T12:32:55.893Z,10.59
2024-03-25T12:33:55.909Z,10.66
2024-03-25T12:34:55.881Z,10.73
2024-03-25T12:35:55.914Z,10.77
2024-03-25T12:36:55.873Z,10.78
2024-03-25T12:37:55.849Z,10.81
2024-03-25T12:38:55.862Z,10.88
2024-03-25T12:39:55.824Z,10.92
2024-03-25T12:40:55.799Z,10.88
2024-03-25T12:41:55.803Z,10.80
2024-03-25T12:42:55.804Z,10.77
2024-03-25T12:43:55.786Z,10.78
2024-03-25T12:44:55.760Z,10.84
2024-03-25T12:45:55.744Z,10.88
2024-03-25T12:46:55.741Z,10.98
2024-03-25T12:47:55.724Z,11.11
2024-03-25T12:48:55.795Z,11.25
2024-03-25T12:49:55.705Z,11.34
2024-03-25T12:50:55.748Z,11.44
2024-03-25T12:51:56.197Z,11.39
2024-03-25T12:52:55.711Z,11.39
2024-03-25T12:53:55.667Z,11.39
2024-03-25T12:54:55.729Z,11.39
2024-03-25T12:55:55.675Z,11.41
2024-03-25T12:56:55.742Z,11.46
2024-03-25T12:57:55.631Z,11.44
2024-03-25T12:58:55.641Z,11.44
2024-03-25T12:59:55.633Z,11.38
2024-03-25T13:00:55.666Z,11.34
2024-03-25T13:01:55.586Z,11.49
2024-03-25T13:02:55.594Z,11.54
2024-03-25T13:03:55.575Z,11.53
2024-03-25T13:04:55.620Z,11.52
2024-03-25T13:05:55.550Z,11.49
2024-03-25T13:06:55.547Z,11.41
2024-03-25T13:07:55.567Z,11.43
2024-03-25T13:08:55.511Z,11.49
2024-03-25T13:09:55.522Z,11.52
2024-03-25T13:10:55.489Z,11.50
2024-03-25T13:11:56.061Z,11.47